Time;durP1;ratioP1;P1;durP2;ratioP2;P2;SDS_P1;SDS_P2;PMS_P1;PMS_P2;Temp;Humidity;BMP_temperature;BMP_pressure;BME280_temperature;BME280_humidity;BME280_pressure;Samples;Min_cycle;Max_cycle;Signal;HPM_P1;HPM_P2
2021/12/21 00:00:26;;;;;;;8.77;4.00;;;;;;;7.85;53.82;102295.47;4953526;28;97740;-76
2021/12/21 00:02:55;;;;;;;20.15;5.88;;;;;;;8.00;53.16;102298.97;4957675;28;97184;-78
2021/12/21 00:05:27;;;;;;;12.18;4.68;;;;;;;8.06;52.64;102299.84;4959418;28;97174;-78
2021/12/21 00:07:57;;;;;;;8.00;3.78;;;;;;;8.11;52.59;102288.44;4963587;28;97098;-78
2021/12/21 00:10:27;;;;;;;5.90;3.53;;;;;;;8.04;52.70;102288.44;4949927;28;100329;-78
2021/12/21 00:13:06;;;;;;;8.38;3.20;;;;;;;7.98;53.20;102282.28;4958360;28;97721;-77
2021/12/21 00:15:47;;;;;;;11.95;3.90;;;;;;;8.14;52.71;102284.94;4950093;28;97087;-79
2021/12/21 00:18:26;;;;;;;10.98;3.85;;;;;;;8.22;52.52;102288.41;4932613;28;96901;-77
2021/12/21 00:21:00;;;;;;;8.55;3.47;;;;;;;8.04;53.13;102285.78;4930599;28;97878;-78
2021/12/21 00:23:33;;;;;;;7.32;3.35;;;;;;;8.08;53.02;102283.16;4930917;28;99484;-79
2021/12/21 00:26:03;;;;;;;5.95;3.13;;;;;;;8.08;52.47;102283.16;4936129;28;97106;-79
2021/12/21 00:28:34;;;;;;;10.52;3.80;;;;;;;8.12;52.21;102284.03;4934894;28;96938;-79
2021/12/21 00:31:02;;;;;;;5.80;2.60;;;;;;;8.15;52.32;102279.63;4936696;28;99329;-81
2021/12/21 00:33:28;;;;;;;8.68;3.42;;;;;;;8.11;52.91;102279.66;4933225;28;97681;-77
2021/12/21 00:35:55;;;;;;;6.38;2.72;;;;;;;8.17;52.95;102277.00;4947363;28;98370;-77
2021/12/21 00:38:21;;;;;;;8.88;3.20;;;;;;;8.21;53.00;102281.38;4942427;28;96774;-77
2021/12/21 00:40:50;;;;;;;5.53;3.22;;;;;;;8.17;52.75;102290.19;4929525;28;99045;-76
2021/12/21 00:43:18;;;;;;;8.40;3.20;;;;;;;8.17;52.61;102291.06;4935951;28;99158;-77
2021/12/21 00:45:44;;;;;;;7.18;3.38;;;;;;;8.14;52.78;102287.56;4942176;28;96787;-77
2021/12/21 00:48:10;;;;;;;13.82;3.53;;;;;;;8.25;52.78;102284.03;4929985;28;97230;-78
2021/12/21 00:50:37;;;;;;;5.07;3.20;;;;;;;8.13;53.15;102288.44;4929371;28;99406;-77
2021/12/21 00:53:05;;;;;;;6.38;2.60;;;;;;;7.30;54.92;102291.84;4939922;28;98856;-78
2021/12/21 00:55:34;;;;;;;7.35;2.90;;;;;;;7.41;54.80;102285.78;4939605;28;97165;-77
2021/12/21 00:58:02;;;;;;;6.00;2.47;;;;;;;7.74;54.23;102284.94;4931336;28;97080;-76
2021/12/21 01:00:28;;;;;;;9.00;3.47;;;;;;;7.73;54.20;102284.94;4934869;28;98985;-78
2021/12/21 01:02:57;;;;;;;5.20;2.63;;;;;;;7.99;53.44;102272.66;4936639;28;99032;-76
2021/12/21 01:05:30;;;;;;;8.70;2.65;;;;;;;7.92;53.22;102266.50;4930235;28;96969;-77
2021/12/21 01:07:59;;;;;;;6.75;2.55;;;;;;;7.77;53.75;102263.00;4937728;28;98544;-77
2021/12/21 01:11:01;;;;;;;6.88;2.70;;;;;;;7.66;53.78;102256.84;4938584;28;99272;-78
2021/12/21 01:13:42;;;;;;;4.82;2.88;;;;;;;7.62;54.12;102266.47;4939859;28;99347;-78
2021/12/21 01:16:22;;;;;;;7.10;2.80;;;;;;;7.83;53.49;102263.00;4943274;28;97057;-79
2021/12/21 01:21:40;;;;;;;;;;;;;;;7.56;54.17;102267.38;4930925;28;97554;-78
2021/12/21 01:24:34;;;;;;;10.30;3.10;;;;;;;7.61;54.19;102262.13;4950943;28;99062;-77
2021/12/21 01:27:11;;;;;;;10.02;3.22;;;;;;;7.39;54.69;102263.84;4945067;28;98345;-78
2021/12/21 01:29:49;;;;;;;15.80;6.20;;;;;;;7.68;54.29;102263.00;4934049;28;96688;-77
2021/12/21 01:32:24;;;;;;;25.02;12.85;;;;;;;7.18;55.41;102267.31;4953618;28;98988;-77
2021/12/21 01:34:59;;;;;;;6.55;3.10;;;;;;;7.43;54.93;102265.59;4942315;28;99254;-77
2021/12/21 01:37:33;;;;;;;7.88;3.58;;;;;;;7.51;54.60;102261.22;4938425;28;97863;-77
2021/12/21 01:40:12;;;;;;;9.48;3.50;;;;;;;7.83;53.95;102260.34;4940197;28;96729;-78
2021/12/21 01:42:53;;;;;;;9.30;3.58;;;;;;;7.57;53.26;102257.72;4939897;28;98923;-76
2021/12/21 01:50:53;;;;;;;9.18;3.30;;;;;;;7.76;53.52;102255.97;4941474;28;96727;-77
2021/12/21 01:53:20;;;;;;;12.05;3.33;;;;;;;7.86;53.66;102255.09;4942570;28;98889;-77
2021/12/21 01:55:50;;;;;;;9.07;3.92;;;;;;;7.70;53.31;102253.34;4933980;28;100044;-76
2021/12/21 01:58:16;;;;;;;11.88;4.03;;;;;;;7.96;53.35;102257.72;4938965;28;97107;-78
2021/12/21 02:00:44;;;;;;;10.05;4.13;;;;;;;7.63;53.58;102255.09;4937301;28;96925;-78
2021/12/21 02:03:11;;;;;;;11.90;4.28;;;;;;;7.82;53.50;102246.31;4946453;28;99331;-77
2021/12/21 02:05:38;;;;;;;10.40;4.10;;;;;;;7.90;53.06;102248.94;4944227;28;97650;-77
2021/12/21 02:08:05;;;;;;;8.32;4.28;;;;;;;7.87;53.09;102236.69;4949287;28;96881;-79
2021/12/21 02:10:34;;;;;;;13.07;4.80;;;;;;;7.71;53.65;102242.81;4935563;28;96773;-77
2021/12/21 02:13:01;;;;;;;13.73;5.03;;;;;;;7.67;53.13;102240.19;4950330;28;99631;-77
2021/12/21 02:15:28;;;;;;;11.88;5.13;;;;;;;7.87;53.49;102239.31;4936130;28;99060;-77
2021/12/21 02:20:46;;;;;;;14.00;5.40;;;;;;;7.95;53.33;102244.56;4952631;28;96611;-77
2021/12/21 02:23:19;;;;;;;10.85;4.72;;;;;;;8.12;53.18;102241.91;4945233;28;98217;-77
2021/12/21 02:26:11;;;;;;;14.57;6.07;;;;;;;8.07;52.73;102235.78;4957537;28;101021;-75
2021/12/21 02:29:08;;;;;;;18.83;5.88;;;;;;;7.65;52.26;102234.94;4943328;28;96683;-76
2021/12/21 02:31:35;;;;;;;19.25;5.40;;;;;;;7.75;53.74;102241.06;4952888;28;96763;-75
2021/12/21 02:34:05;;;;;;;14.80;5.65;;;;;;;7.85;53.73;102241.06;4942962;28;99707;-77
2021/12/21 02:36:33;;;;;;;26.48;6.07;;;;;;;7.31;54.74;102241.91;4937593;28;100932;-77
2021/12/21 02:39:00;;;;;;;13.02;5.72;;;;;;;7.72;54.12;102235.81;4932743;28;96745;-77
2021/12/21 02:41:26;;;;;;;16.58;6.85;;;;;;;6.47;57.46;102232.00;4936095;28;96870;-77
2021/12/21 02:43:55;;;;;;;18.65;7.38;;;;;;;6.89;57.34;102233.94;4939814;28;99188;-78
2021/12/21 02:46:23;;;;;;;21.45;6.30;;;;;;;7.29;55.67;102234.88;4934906;28;98847;-79
2021/12/21 02:48:50;;;;;;;20.92;7.55;;;;;;;7.18;55.71;102230.50;4933026;28;96660;-77
2021/12/21 02:51:16;;;;;;;18.38;7.68;;;;;;;7.45;55.73;102232.28;4943165;28;98263;-78
2021/12/21 02:53:44;;;;;;;15.60;7.15;;;;;;;7.67;54.76;102227.03;4936621;28;99216;-78
2021/12/21 02:56:11;;;;;;;16.77;7.28;;;;;;;7.58;54.58;102228.78;4925768;28;98826;-77
2021/12/21 02:58:38;;;;;;;15.02;7.65;;;;;;;7.18;55.94;102225.25;4944632;28;97319;-78
2021/12/21 03:01:07;;;;;;;15.70;7.03;;;;;;;7.31;55.68;102231.38;4928416;28;96941;-78
2021/12/21 03:03:33;;;;;;;16.00;8.27;;;;;;;7.53;54.99;102225.28;4942742;28;98929;-77
2021/12/21 03:06:00;;;;;;;14.02;7.38;;;;;;;7.34;55.32;102220.00;4936453;28;99294;-78
2021/12/21 03:08:36;;;;;;;14.88;7.35;;;;;;;7.32;55.13;102219.13;4944667;28;96845;-75
2021/12/21 03:11:12;;;;;;;11.25;7.10;;;;;;;7.75;54.91;102220.00;4945119;28;96770;-78
2021/12/21 03:14:04;;;;;;;14.60;7.00;;;;;;;7.36;55.76;102218.25;4928007;28;99451;-78
2021/12/21 03:16:32;;;;;;;18.30;6.85;;;;;;;7.70;54.34;102224.41;4933806;28;97716;-77
2021/12/21 03:18:59;;;;;;;14.25;6.85;;;;;;;7.56;54.52;102221.75;4944730;28;96736;-76
2021/12/21 03:21:27;;;;;;;18.40;6.95;;;;;;;7.90;53.64;102220.88;4937749;28;96695;-77
2021/12/21 03:23:54;;;;;;;14.45;7.07;;;;;;;7.78;54.40;102218.25;4940903;28;96863;-77
2021/12/21 03:26:22;;;;;;;16.05;6.70;;;;;;;7.70;54.48;102219.13;4939819;28;97688;-77
2021/12/21 03:28:48;;;;;;;13.70;6.47;;;;;;;7.63;54.46;102220.00;4944211;28;96652;-77
2021/12/21 03:31:15;;;;;;;16.08;7.15;;;;;;;7.51;54.99;102221.78;4942587;28;96869;-78
2021/12/21 03:33:41;;;;;;;13.15;6.90;;;;;;;7.60;54.51;102215.66;4954044;28;99126;-76
2021/12/21 03:36:08;;;;;;;15.10;7.25;;;;;;;7.64;54.71;102213.88;4951550;28;99048;-76
2021/12/21 03:38:36;;;;;;;17.92;7.50;;;;;;;7.60;55.26;102219.16;4952193;28;96960;-75
2021/12/21 03:41:07;;;;;;;16.27;7.60;;;;;;;7.94;54.32;102206.81;4935385;28;96768;-77
2021/12/21 03:43:35;;;;;;;17.25;7.30;;;;;;;7.58;54.80;102210.38;4938326;28;99495;-78
2021/12/21 03:46:08;;;;;;;18.17;7.43;;;;;;;7.40;55.49;102205.13;4939398;28;99274;-77
2021/12/21 03:48:35;;;;;;;20.73;8.48;;;;;;;7.53;55.46;102209.50;4925725;28;96917;-76
2021/12/21 03:51:02;;;;;;;18.67;8.95;;;;;;;7.58;55.20;102202.47;4940904;28;97309;-78
2021/12/21 03:53:28;;;;;;;15.90;8.93;;;;;;;7.71;54.40;102207.75;4938361;28;99436;-77
2021/12/21 03:56:05;;;;;;;20.65;9.38;;;;;;;7.82;54.17;102214.75;4937131;28;99137;-76
2021/12/21 03:58:31;;;;;;;19.67;9.25;;;;;;;7.31;54.93;102205.09;4943332;28;96816;-78
2021/12/21 04:00:59;;;;;;;20.95;9.75;;;;;;;7.57;55.14;102206.00;4933244;28;96772;-76
2021/12/21 04:03:26;;;;;;;21.48;10.00;;;;;;;7.51;54.25;102205.09;4940075;28;97745;-77
2021/12/21 04:05:53;;;;;;;18.65;9.30;;;;;;;7.95;53.91;102210.34;4916227;28;99383;-77
2021/12/21 04:08:19;;;;;;;25.92;10.32;;;;;;;7.52;54.59;102206.88;4943561;28;96756;-77
2021/12/21 04:10:45;;;;;;;24.45;9.90;;;;;;;7.72;54.35;102215.63;4940548;28;96842;-77
2021/12/21 04:13:12;;;;;;;23.17;10.15;;;;;;;7.89;53.29;102212.97;4944069;28;99007;-78
2021/12/21 04:15:42;;;;;;;20.30;10.05;;;;;;;7.62;54.30;102213.88;4936367;28;98814;-77
2021/12/21 04:18:10;;;;;;;20.05;9.30;;;;;;;7.62;54.51;102208.59;4937651;28;96802;-77
2021/12/21 04:20:37;;;;;;;19.40;8.18;;;;;;;7.24;55.29;102226.13;4948612;28;96791;-77
2021/12/21 04:23:04;;;;;;;18.33;9.13;;;;;;;7.21;55.72;102227.00;4936081;28;99110;-77
2021/12/21 04:25:31;;;;;;;24.02;9.73;;;;;;;7.48;55.09;102215.66;4937888;28;98978;-78
2021/12/21 04:27:58;;;;;;;20.67;10.48;;;;;;;7.43;55.20;102214.75;4944959;28;97140;-77
2021/12/21 04:30:26;;;;;;;18.40;9.80;;;;;;;7.68;54.70;102218.28;4936727;28;99004;-76
2021/12/21 04:32:52;;;;;;;23.83;10.77;;;;;;;7.50;54.40;102220.00;4939686;28;98951;-77
2021/12/21 04:35:21;;;;;;;27.75;10.68;;;;;;;6.85;56.41;102217.28;4935974;28;97735;-77
2021/12/21 04:37:52;;;;;;;20.52;10.63;;;;;;;7.50;55.67;102214.75;4946367;28;96935;-75
2021/12/21 04:40:24;;;;;;;22.88;10.93;;;;;;;7.94;54.04;102211.25;4937669;28;96941;-76
2021/12/21 04:42:51;;;;;;;21.90;10.90;;;;;;;7.89;52.66;102227.03;4940574;28;101407;-78
2021/12/21 04:45:17;;;;;;;23.70;11.52;;;;;;;7.58;54.72;102213.00;4950715;28;99182;-78
2021/12/21 04:47:44;;;;;;;25.00;11.55;;;;;;;7.79;54.05;102212.13;4940240;28;97139;-78
2021/12/21 04:50:12;;;;;;;27.92;12.52;;;;;;;8.12;53.55;102219.09;4945833;28;96829;-77
2021/12/21 04:52:40;;;;;;;23.88;11.82;;;;;;;7.91;52.48;102222.63;4935680;28;98916;-76
2021/12/21 04:55:07;;;;;;;24.70;11.93;;;;;;;7.64;53.46;102219.13;4940493;28;99471;-76
2021/12/21 04:57:34;;;;;;;29.27;12.30;;;;;;;7.57;54.62;102210.38;4949881;28;96655;-76
2021/12/21 05:00:00;;;;;;;32.22;12.88;;;;;;;7.31;55.27;102217.38;4934253;28;96828;-76
2021/12/21 05:02:27;;;;;;;25.23;12.38;;;;;;;7.38;55.12;102213.88;4937726;28;99292;-77
2021/12/21 05:04:53;;;;;;;40.00;14.18;;;;;;;7.57;54.59;102216.50;4926753;28;98013;-77
2021/12/21 05:07:23;;;;;;;30.27;12.82;;;;;;;7.73;53.98;102220.03;4943689;28;96978;-78
2021/12/21 05:09:56;;;;;;;31.77;13.00;;;;;;;7.59;54.36;102222.66;4947205;28;96895;-76
2021/12/21 05:12:23;;;;;;;30.58;12.68;;;;;;;7.14;55.66;102230.50;4948947;28;101184;-78
2021/12/21 05:14:50;;;;;;;32.20;14.05;;;;;;;7.41;56.10;102232.31;4948033;28;99131;-78
2021/12/21 05:17:16;;;;;;;27.38;12.48;;;;;;;7.65;55.05;102223.53;4940734;28;96726;-78
2021/12/21 05:19:43;;;;;;;33.30;13.30;;;;;;;7.74;53.89;102226.16;4944231;28;97572;-77
2021/12/21 05:22:20;;;;;;;;;;;;;;;;;;;;;
2021/12/21 05:24:47;;;;;;;29.33;13.32;;;;;;;8.13;53.27;102220.84;4935690;28;127923;-78
2021/12/21 05:27:15;;;;;;;34.13;13.90;;;;;;;7.90;53.86;102223.50;4950778;28;96834;-77
2021/12/21 05:29:41;;;;;;;33.25;13.27;;;;;;;7.84;53.37;102225.28;4937003;28;96780;-77
2021/12/21 05:32:08;;;;;;;26.80;13.02;;;;;;;7.54;54.72;102220.91;4937934;28;99184;-77
2021/12/21 05:34:35;;;;;;;25.92;13.23;;;;;;;6.91;55.95;102227.78;4944126;28;99278;-77
2021/12/21 05:37:05;;;;;;;26.77;13.23;;;;;;;6.60;56.30;102232.06;4935751;28;96908;-77
2021/12/21 05:39:40;;;;;;;24.08;13.45;;;;;;;6.33;57.87;102232.81;4937174;28;96979;-78
2021/12/21 05:42:07;;;;;;;35.47;13.38;;;;;;;6.64;57.48;102225.94;4937057;28;98890;-76
2021/12/21 05:44:35;;;;;;;27.67;13.18;;;;;;;7.05;56.07;102220.81;4939736;28;101274;-77
2021/12/21 05:47:01;;;;;;;35.40;13.80;;;;;;;7.08;55.88;102218.22;4947378;28;97952;-78
2021/12/21 05:49:28;;;;;;;38.80;13.95;;;;;;;7.53;55.35;102225.28;4927058;28;96985;-76
2021/12/21 05:51:54;;;;;;;33.50;13.60;;;;;;;7.91;53.73;102217.38;4934176;28;99253;-77
2021/12/21 05:54:21;;;;;;;28.50;12.95;;;;;;;8.06;53.65;102221.75;4944639;28;98821;-77
2021/12/21 05:56:48;;;;;;;35.85;14.13;;;;;;;8.00;53.05;102224.41;4940717;28;96869;-76
2021/12/21 05:59:14;;;;;;;40.88;15.63;;;;;;;7.67;53.77;102232.31;4954995;28;96929;-77
2021/12/21 06:01:42;;;;;;;34.90;14.63;;;;;;;7.49;55.37;102234.03;4965387;28;97732;-76
2021/12/21 06:04:09;;;;;;;37.03;13.98;;;;;;;7.01;55.48;102240.09;4959635;28;99351;-75
2021/12/21 06:06:35;;;;;;;30.33;13.75;;;;;;;7.51;54.89;102236.66;4963294;28;96782;-75
2021/12/21 06:09:06;;;;;;;35.05;13.95;;;;;;;7.50;55.24;102243.69;4932431;28;99146;-75
2021/12/21 06:11:35;;;;;;;40.13;14.82;;;;;;;7.26;55.53;102235.78;4943583;28;98050;-76
2021/12/21 06:14:17;;;;;;;33.13;14.63;;;;;;;7.53;54.03;102234.94;4926570;28;99530;-76
2021/12/21 06:25:34;;;;;;;33.80;14.07;;;;;;;7.58;54.78;102241.06;4934919;28;97142;-77
2021/12/21 06:28:02;;;;;;;38.25;16.00;;;;;;;7.56;54.83;102243.69;4945678;28;96984;-77
2021/12/21 06:30:35;;;;;;;35.40;16.13;;;;;;;7.80;53.74;102242.84;4934668;28;96836;-78
2021/12/21 06:33:03;;;;;;;26.50;13.75;;;;;;;7.73;54.47;102248.09;4937673;28;101411;-77
2021/12/21 06:35:29;;;;;;;33.47;14.25;;;;;;;7.98;53.06;102244.56;4920409;28;100030;-77
2021/12/21 06:37:56;;;;;;;37.10;16.02;;;;;;;8.15;53.61;102242.78;4933667;28;96889;-78
2021/12/21 06:40:34;;;;;;;38.65;15.25;;;;;;;8.09;52.94;102237.53;4944100;28;97196;-78
2021/12/21 06:43:02;;;;;;;43.90;15.95;;;;;;;7.41;54.31;102251.59;4923646;28;99139;-77
2021/12/21 06:45:45;;;;;;;36.13;15.13;;;;;;;7.90;53.58;102246.31;4924840;28;98754;-77
2021/12/21 06:51:16;;;;;;;35.70;14.57;;;;;;;7.80;54.37;102249.84;4924404;28;96779;-77
2021/12/21 06:53:46;;;;;;;38.50;15.02;;;;;;;7.15;55.22;102243.63;4933785;28;99073;-78
2021/12/21 06:56:14;;;;;;;46.10;16.30;;;;;;;7.40;54.78;102249.81;4926284;28;98878;-78
2021/12/21 06:58:42;;;;;;;39.60;16.98;;;;;;;7.37;55.09;102254.19;4944149;28;96798;-77
2021/12/21 07:01:09;;;;;;;35.60;15.52;;;;;;;7.59;54.83;102255.97;4948505;28;97190;-77
2021/12/21 07:03:38;;;;;;;33.10;16.17;;;;;;;7.48;54.50;102252.47;4935672;28;98969;-77
2021/12/21 07:06:06;;;;;;;40.80;16.30;;;;;;;7.75;53.88;102262.09;4921384;28;98868;-77
2021/12/21 07:08:43;;;;;;;39.75;15.52;;;;;;;7.05;55.32;102251.50;4930740;28;96722;-77
2021/12/21 07:12:07;;;;;;;;;;;;;;;;;;;;;
2021/12/21 07:20:16;;;;;;;30.50;13.02;;;;;;;7.79;53.75;102256.88;4922790;28;97092;-77
2021/12/21 07:23:03;;;;;;;;;;;;;;;;;;;;;
2021/12/21 07:25:37;;;;;;;27.65;11.98;;;;;;;7.26;54.89;102263.81;4919912;28;128132;-79
2021/12/21 07:28:04;;;;;;;32.22;13.43;;;;;;;7.77;53.70;102263.00;4929176;28;98841;-77
2021/12/21 07:30:30;;;;;;;33.60;14.52;;;;;;;7.38;54.47;102262.09;4929566;28;96646;-76
2021/12/21 07:32:57;;;;;;;29.80;12.65;;;;;;;7.15;55.25;102263.81;4931840;28;98345;-77
2021/12/21 07:35:25;;;;;;;29.83;14.27;;;;;;;7.18;55.61;102269.06;4931176;28;99336;-77
2021/12/21 07:37:51;;;;;;;28.80;13.30;;;;;;;7.08;55.83;102267.28;4932423;28;98870;-76
2021/12/21 07:40:18;;;;;;;22.58;11.50;;;;;;;6.96;55.48;102265.47;4932855;28;96826;-76
2021/12/21 07:42:45;;;;;;;21.67;10.93;;;;;;;7.15;54.64;102256.75;4923037;28;96777;-77
2021/12/21 07:45:11;;;;;;;25.08;10.73;;;;;;;7.32;54.03;102264.72;4930262;28;99095;-78
2021/12/21 07:47:38;;;;;;;22.90;11.55;;;;;;;7.48;53.87;102266.47;4938031;28;98859;-77
2021/12/21 07:50:06;;;;;;;34.42;12.48;;;;;;;7.84;53.40;102268.25;4931929;28;96761;-77
2021/12/21 07:52:35;;;;;;;29.55;11.90;;;;;;;7.77;53.13;102269.13;4938828;28;96772;-77
2021/12/21 07:55:01;;;;;;;26.17;11.52;;;;;;;7.84;52.73;102267.38;4938613;28;101940;-76
2021/12/21 07:57:28;;;;;;;30.42;12.20;;;;;;;7.88;52.96;102266.50;4932520;28;98947;-76
2021/12/21 07:59:55;;;;;;;26.42;11.65;;;;;;;7.78;51.99;102263.00;4926573;28;96750;-76
2021/12/21 08:02:23;;;;;;;27.08;11.70;;;;;;;7.89;52.79;102269.13;4935244;28;96923;-78
2021/12/21 08:04:52;;;;;;;29.77;12.23;;;;;;;7.97;51.99;102270.00;4935271;28;98115;-77
2021/12/21 08:07:22;;;;;;;26.08;11.88;;;;;;;7.92;52.39;102270.91;4931548;28;99152;-77
2021/12/21 08:09:53;;;;;;;18.95;10.60;;;;;;;8.02;52.01;102267.38;4923205;28;96819;-78
2021/12/21 08:12:21;;;;;;;22.83;11.57;;;;;;;7.89;52.27;102262.97;4937094;28;96747;-76
2021/12/21 08:14:50;;;;;;;22.40;11.55;;;;;;;7.93;50.95;102272.66;4927792;28;99243;-78
2021/12/21 08:17:18;;;;;;;23.05;11.00;;;;;;;7.47;52.20;102272.63;4918773;28;99271;-76
2021/12/21 08:19:44;;;;;;;30.27;12.43;;;;;;;7.58;52.76;102280.53;4928546;28;97195;-77
2021/12/21 08:22:12;;;;;;;26.52;12.52;;;;;;;7.87;52.13;102275.28;4930883;28;96819;-77
2021/12/21 08:24:38;;;;;;;23.17;11.82;;;;;;;7.98;52.04;102273.53;4923082;28;98861;-77
2021/12/21 08:27:10;;;;;;;27.73;11.52;;;;;;;7.26;53.28;102280.47;4917754;28;98819;-76
2021/12/21 08:29:36;;;;;;;28.05;12.07;;;;;;;7.58;53.01;102284.03;4938060;28;96883;-76
2021/12/21 08:32:03;;;;;;;25.13;11.48;;;;;;;7.62;52.86;102284.91;4929774;28;97132;-76
2021/12/21 08:34:30;;;;;;;25.13;10.20;;;;;;;7.47;52.42;102283.16;4927437;28;99299;-77
2021/12/21 08:36:56;;;;;;;21.95;10.73;;;;;;;7.48;52.66;102289.28;4927777;28;99152;-76
2021/12/21 08:39:24;;;;;;;24.52;11.93;;;;;;;7.55;52.49;102289.28;4933667;28;96781;-76
2021/12/21 08:41:56;;;;;;;24.50;11.05;;;;;;;7.58;53.10;102291.94;4936465;28;97070;-77
2021/12/21 08:44:25;;;;;;;28.77;11.15;;;;;;;7.44;53.51;102298.03;4924873;28;98247;-76
2021/12/21 08:46:52;;;;;;;24.80;10.75;;;;;;;6.79;53.78;102299.59;4945244;28;99085;-78
2021/12/21 08:49:19;;;;;;;26.70;10.38;;;;;;;6.24;56.08;102308.00;4931078;28;97948;-77
2021/12/21 08:51:45;;;;;;;22.48;11.63;;;;;;;6.86;54.56;102294.34;4926141;28;97301;-76
2021/12/21 08:54:13;;;;;;;22.45;11.38;;;;;;;7.26;53.59;102291.00;4928507;28;99242;-76
2021/12/21 08:56:39;;;;;;;21.92;10.32;;;;;;;7.56;52.14;102288.41;4920622;28;99281;-76
2021/12/21 08:59:06;;;;;;;25.00;11.38;;;;;;;7.85;51.67;102293.72;4929521;28;97099;-77
2021/12/21 09:01:34;;;;;;;29.20;10.40;;;;;;;7.79;50.58;102285.81;4924984;28;97163;-77
2021/12/21 09:04:00;;;;;;;23.38;10.70;;;;;;;7.82;51.87;102282.28;4919902;28;102739;-77
2021/12/21 09:06:27;;;;;;;24.80;11.43;;;;;;;7.85;51.59;102288.44;4932264;28;98920;-77
2021/12/21 09:08:53;;;;;;;23.52;11.23;;;;;;;7.65;51.61;102295.44;4926347;28;96679;-77
2021/12/21 09:11:24;;;;;;;29.52;11.60;;;;;;;8.10;51.54;102293.69;4934132;28;97116;-79
2021/12/21 09:13:51;;;;;;;19.52;9.82;;;;;;;8.23;50.43;102298.94;4931052;28;97767;-78
2021/12/21 09:16:20;;;;;;;21.30;10.00;;;;;;;8.39;50.10;102292.81;4934709;28;98314;-79
2021/12/21 09:19:00;;;;;;;21.08;10.07;;;;;;;8.30;48.64;102300.72;4942619;28;96763;-77
2021/12/21 09:21:27;;;;;;;24.60;10.73;;;;;;;7.98;50.72;102302.47;4934637;28;97828;-76
2021/12/21 09:23:53;;;;;;;23.08;10.50;;;;;;;7.67;50.23;102296.34;4937310;28;99227;-77
2021/12/21 09:28:51;;;;;;;23.75;10.68;;;;;;;6.74;52.64;102298.69;4899704;28;97095;-74
2021/12/21 09:31:18;;;;;;;24.70;11.57;;;;;;;6.83;54.06;102307.50;4897982;28;99676;-72
2021/12/21 09:33:45;;;;;;;21.73;11.30;;;;;;;7.05;53.23;102304.94;4896496;28;100624;-74
2021/12/21 09:36:12;;;;;;;24.45;11.57;;;;;;;7.23;52.46;102304.13;4901213;28;98952;-74
2021/12/21 09:38:39;;;;;;;31.88;12.10;;;;;;;7.51;52.04;102299.81;4903392;28;97174;-73
2021/12/21 09:41:06;;;;;;;25.33;12.07;;;;;;;7.71;51.93;102299.84;4902771;28;96909;-73
2021/12/21 09:43:33;;;;;;;25.80;12.32;;;;;;;7.75;51.21;102305.09;4900994;28;99161;-73
2021/12/21 09:45:59;;;;;;;22.33;11.98;;;;;;;7.95;50.91;102308.59;4898356;28;97970;-74
2021/12/21 09:48:28;;;;;;;24.30;11.73;;;;;;;8.05;50.44;102304.22;4903302;28;97321;-73
2021/12/21 09:50:55;;;;;;;25.92;11.15;;;;;;;8.19;49.52;102304.22;4898566;28;97101;-74
2021/12/21 09:53:33;;;;;;;21.63;10.85;;;;;;;8.15;49.60;102308.59;4906972;28;99402;-73
2021/12/21 09:56:00;;;;;;;25.77;11.40;;;;;;;8.46;49.07;102309.50;4904260;28;101209;-74
2021/12/21 09:58:26;;;;;;;28.67;11.48;;;;;;;8.61;48.76;102305.91;4905770;28;96791;-74
2021/12/21 10:00:53;;;;;;;26.80;12.05;;;;;;;7.91;48.98;102316.50;4899081;28;96915;-74
2021/12/21 10:03:19;;;;;;;33.53;15.45;;;;;;;6.96;52.51;102306.63;4904796;28;99436;-73
2021/12/21 10:05:46;;;;;;;27.55;12.88;;;;;;;7.34;52.87;102312.06;4896513;28;98975;-73
2021/12/21 10:08:16;;;;;;;29.95;13.50;;;;;;;7.53;51.76;102311.22;4904707;28;97471;-73
2021/12/21 10:10:45;;;;;;;29.63;13.13;;;;;;;7.51;52.30;102311.19;4909652;28;97202;-73
2021/12/21 10:13:16;;;;;;;26.58;12.82;;;;;;;7.55;50.63;102305.06;4896161;28;99237;-73
2021/12/21 10:15:46;;;;;;;28.60;12.82;;;;;;;7.82;51.43;102304.22;4907805;28;100019;-72
2021/12/21 10:18:13;;;;;;;26.45;11.98;;;;;;;8.12;50.77;102308.63;4910351;28;96904;-72
2021/12/21 10:20:41;;;;;;;26.35;12.55;;;;;;;8.14;49.76;102304.19;4904531;28;97001;-72
2021/12/21 10:23:10;;;;;;;25.10;11.65;;;;;;;8.14;49.83;102311.25;4902748;28;98474;-73
2021/12/21 10:25:42;;;;;;;23.10;11.75;;;;;;;8.18;49.93;102313.88;4907350;28;99296;-73
2021/12/21 10:28:10;;;;;;;21.67;10.57;;;;;;;7.79;49.45;102316.50;4907989;28;96866;-73
2021/12/21 10:30:47;;;;;;;21.92;10.07;;;;;;;7.98;49.64;102315.63;4902600;28;97352;-72
2021/12/21 10:33:14;;;;;;;23.63;10.88;;;;;;;7.80;49.95;102311.25;4897988;28;99597;-73
2021/12/21 10:35:40;;;;;;;22.52;11.10;;;;;;;7.96;50.08;102310.38;4898650;28;98108;-73
2021/12/21 10:38:07;;;;;;;24.50;10.82;;;;;;;8.29;48.93;102312.09;4899890;28;96957;-73
2021/12/21 10:40:33;;;;;;;25.15;10.40;;;;;;;7.56;50.39;102314.72;4902333;28;96871;-72
2021/12/21 10:43:01;;;;;;;19.63;10.05;;;;;;;7.25;52.00;102312.00;4907892;28;98952;-73
2021/12/21 10:45:33;;;;;;;19.55;10.82;;;;;;;6.96;52.55;102314.53;4899194;28;99187;-73
2021/12/21 10:48:03;;;;;;;22.70;10.35;;;;;;;6.64;52.34;102304.75;4897729;28;96754;-73
2021/12/21 10:50:33;;;;;;;20.35;10.18;;;;;;;6.62;53.85;102310.88;4901224;28;97615;-73
2021/12/21 10:53:02;;;;;;;23.63;10.98;;;;;;;6.51;53.76;102309.91;4905781;28;99298;-73
2021/12/21 10:55:32;;;;;;;26.35;12.35;;;;;;;7.09;53.83;102309.31;4895371;28;99133;-73
2021/12/21 10:58:09;;;;;;;25.10;12.32;;;;;;;7.18;51.68;102305.84;4907446;28;96765;-73
2021/12/21 11:00:41;;;;;;;25.08;13.18;;;;;;;7.01;52.48;102299.69;4900940;28;96769;-73
2021/12/21 11:03:08;;;;;;;26.60;14.25;;;;;;;7.26;52.05;102304.13;4904162;28;99234;-73
2021/12/21 11:05:34;;;;;;;23.77;11.98;;;;;;;7.16;51.59;102304.97;4899636;28;99213;-74
2021/12/21 11:08:06;;;;;;;23.95;11.45;;;;;;;6.95;51.82;102302.28;4895441;28;96900;-74
2021/12/21 11:10:35;;;;;;;24.95;11.77;;;;;;;6.15;54.04;102300.06;4899721;28;96968;-74
2021/12/21 11:13:03;;;;;;;24.90;12.57;;;;;;;6.26;53.71;102308.88;4897945;28;98330;-75
2021/12/21 11:15:33;;;;;;;24.95;13.02;;;;;;;6.47;53.68;102311.66;4900544;28;99157;-75
2021/12/21 11:18:03;;;;;;;25.20;12.75;;;;;;;6.68;54.38;102310.91;4906206;28;96811;-75
2021/12/21 11:20:30;;;;;;;24.63;12.52;;;;;;;6.68;53.54;102300.41;4900391;28;97030;-74
2021/12/21 11:22:57;;;;;;;23.85;12.23;;;;;;;6.72;53.90;102297.78;4898793;28;96932;-74
2021/12/21 11:25:24;;;;;;;22.52;11.23;;;;;;;6.40;53.39;102302.88;4897339;28;99338;-73
2021/12/21 11:27:51;;;;;;;17.10;10.57;;;;;;;6.43;54.90;102296.78;4900720;28;97409;-74
2021/12/21 11:30:20;;;;;;;21.88;10.68;;;;;;;6.91;53.02;102297.88;4901857;28;96914;-73
2021/12/21 11:32:49;;;;;;;23.33;11.35;;;;;;;7.28;52.42;102293.63;4896807;28;99459;-74
2021/12/21 11:38:07;;;;;;;21.35;11.20;;;;;;;7.74;50.69;102270.91;4900459;28;96798;-73
2021/12/21 11:40:36;;;;;;;27.17;10.27;;;;;;;8.07;50.21;102275.28;4892873;28;98297;-74
2021/12/21 11:43:22;;;;;;;22.33;11.43;;;;;;;8.22;49.36;102272.59;4892030;28;102277;-73
2021/12/21 11:45:51;;;;;;;21.73;11.18;;;;;;;7.93;50.28;102272.66;4896547;28;99105;-73
2021/12/21 11:48:33;;;;;;;21.13;10.05;;;;;;;8.25;49.48;102265.59;4897876;28;96846;-74
2021/12/21 11:51:05;;;;;;;20.02;9.63;;;;;;;7.86;50.21;102277.03;4899680;28;96811;-73
2021/12/21 11:53:32;;;;;;;21.48;8.27;;;;;;;8.05;49.52;102270.00;4895589;28;98135;-74
2021/12/21 11:55:58;;;;;;;18.23;8.77;;;;;;;7.64;49.80;102275.25;4897881;28;99217;-73
2021/12/21 11:58:27;;;;;;;15.85;8.13;;;;;;;7.27;51.08;102278.72;4898567;28;97104;-72
2021/12/21 12:00:56;;;;;;;18.35;9.18;;;;;;;7.51;50.61;102284.03;4896795;28;97119;-74
2021/12/21 12:03:25;;;;;;;19.38;10.70;;;;;;;7.88;50.07;102271.75;4900970;28;99272;-73
2021/12/21 12:05:55;;;;;;;19.98;9.82;;;;;;;7.49;49.71;102275.25;4896812;28;99603;-74
2021/12/21 12:08:24;;;;;;;22.60;10.95;;;;;;;7.71;49.93;102270.88;4897685;28;96782;-74